SWA3674 KONT-KSJC
Flight info
| Callsign | SWA3674 |
|---|---|
| Flight time | 0h 54m |
| Altitude | 36000 |
| Route | SNSHN5 COREZ MAKRS TROXX SILCN6 |
| Aircraft | B737/M-SADE2E3GIJ4RWZ/LB1D1 |
Departure
| Time | 2026-05-06 00:59 |
|---|---|
| Airport | Ontario International Airport (KONT) |
Arrival
| Time | 2026-05-06 01:53 |
|---|---|
| Airport | Norman Y. Mineta San Jose International Airport (KSJC) |
| Time | Latitude | Longitude | Altitude | Speed | Heading |
|---|---|---|---|---|---|
| 2026-05-06 00:25 | 34.05962 | -117.58739 | 944 ft | 0 kts | 0° |
| 2026-05-06 00:48 | 34.05945 | -117.58739 | 943 ft | 3 kts | 0° |
| 2026-05-06 00:48 | 34.05920 | -117.58744 | 944 ft | 4 kts | 29° |
| 2026-05-06 00:48 | 34.05902 | -117.58764 | 944 ft | 4 kts | 71° |
| 2026-05-06 00:49 | 34.05899 | -117.58778 | 944 ft | 1 kts | 89° |
| 2026-05-06 00:51 | 34.05899 | -117.58777 | 944 ft | 1 kts | 89° |
| 2026-05-06 00:52 | 34.05900 | -117.58714 | 944 ft | 14 kts | 89° |
| 2026-05-06 00:52 | 34.05900 | -117.58591 | 944 ft | 15 kts | 89° |
| 2026-05-06 00:52 | 34.05901 | -117.58470 | 944 ft | 14 kts | 89° |
| 2026-05-06 00:52 | 34.05901 | -117.58356 | 944 ft | 12 kts | 90° |
| 2026-05-06 00:53 | 34.05875 | -117.58275 | 943 ft | 11 kts | 159° |
| 2026-05-06 00:53 | 34.05799 | -117.58271 | 944 ft | 10 kts | 180° |
| 2026-05-06 00:53 | 34.05790 | -117.58271 | 944 ft | 0 kts | 180° |
| 2026-05-06 00:57 | 34.05758 | -117.58271 | 944 ft | 13 kts | 180° |
| 2026-05-06 00:58 | 34.05690 | -117.58338 | 945 ft | 14 kts | 258° |
| 2026-05-06 00:58 | 34.05689 | -117.58361 | 946 ft | 0 kts | 269° |
| 2026-05-06 00:58 | 34.05687 | -117.58628 | 945 ft | 70 kts | 270° |
| 2026-05-06 00:59 | 34.05687 | -117.59504 | 944 ft | 136 kts | 269° |
| 2026-05-06 00:59 | 34.05682 | -117.60814 | 1149 ft | 173 kts | 270° |
| 2026-05-06 00:59 | 34.05706 | -117.62378 | 1634 ft | 199 kts | 270° |
| 2026-05-06 00:59 | 34.05745 | -117.64147 | 2117 ft | 222 kts | 270° |
| 2026-05-06 01:00 | 34.05810 | -117.66056 | 2822 ft | 233 kts | 271° |
| 2026-05-06 01:00 | 34.05899 | -117.68033 | 3694 ft | 237 kts | 272° |
| 2026-05-06 01:00 | 34.05998 | -117.70064 | 4394 ft | 252 kts | 269° |
| 2026-05-06 01:00 | 34.06090 | -117.72177 | 5279 ft | 253 kts | 284° |
| 2026-05-06 01:01 | 34.06640 | -117.74214 | 6141 ft | 261 kts | 289° |
| 2026-05-06 01:01 | 34.07211 | -117.76347 | 6904 ft | 271 kts | 288° |
| 2026-05-06 01:01 | 34.07825 | -117.78501 | 7634 ft | 273 kts | 299° |
| 2026-05-06 01:01 | 34.08990 | -117.80285 | 8303 ft | 274 kts | 315° |
| 2026-05-06 01:02 | 34.10293 | -117.81989 | 9281 ft | 278 kts | 315° |
| 2026-05-06 01:02 | 34.11604 | -117.83714 | 10302 ft | 281 kts | 314° |
| 2026-05-06 01:02 | 34.12894 | -117.85610 | 10750 ft | 307 kts | 309° |
| 2026-05-06 01:02 | 34.14177 | -117.87765 | 11322 ft | 324 kts | 306° |
| 2026-05-06 01:03 | 34.15484 | -117.90030 | 12123 ft | 332 kts | 306° |
| 2026-05-06 01:03 | 34.16812 | -117.92322 | 13075 ft | 335 kts | 306° |
| 2026-05-06 01:03 | 34.18163 | -117.94652 | 13897 ft | 344 kts | 307° |
| 2026-05-06 01:03 | 34.19536 | -117.97030 | 14812 ft | 346 kts | 307° |
| 2026-05-06 01:04 | 34.20933 | -117.99416 | 15699 ft | 351 kts | 307° |
| 2026-05-06 01:04 | 34.22343 | -118.01814 | 16626 ft | 354 kts | 307° |
| 2026-05-06 01:04 | 34.23789 | -118.04270 | 17485 ft | 360 kts | 307° |
| 2026-05-06 01:04 | 34.25256 | -118.06764 | 18293 ft | 367 kts | 307° |
| 2026-05-06 01:05 | 34.26748 | -118.09303 | 19032 ft | 373 kts | 307° |
| 2026-05-06 01:05 | 34.28264 | -118.11878 | 19781 ft | 379 kts | 308° |
| 2026-05-06 01:05 | 34.29847 | -118.14443 | 20548 ft | 383 kts | 309° |
| 2026-05-06 01:05 | 34.31481 | -118.17016 | 21273 ft | 388 kts | 310° |
| 2026-05-06 01:06 | 34.33138 | -118.19601 | 22075 ft | 391 kts | 311° |
| 2026-05-06 01:06 | 34.34820 | -118.22221 | 22786 ft | 397 kts | 310° |
| 2026-05-06 01:06 | 34.36521 | -118.24881 | 23494 ft | 403 kts | 310° |
| 2026-05-06 01:06 | 34.38197 | -118.27622 | 24152 ft | 407 kts | 306° |
| 2026-05-06 01:07 | 34.39843 | -118.30420 | 24787 ft | 409 kts | 310° |
| 2026-05-06 01:07 | 34.41600 | -118.33143 | 25401 ft | 412 kts | 311° |
| 2026-05-06 01:07 | 34.43391 | -118.35884 | 25974 ft | 417 kts | 311° |
| 2026-05-06 01:07 | 34.45182 | -118.38649 | 26614 ft | 419 kts | 311° |
| 2026-05-06 01:08 | 34.46374 | -118.40507 | 26992 ft | 422 kts | 312° |
| 2026-05-06 01:08 | 34.48194 | -118.43361 | 27252 ft | 434 kts | 313° |
| 2026-05-06 01:08 | 34.50047 | -118.46287 | 27619 ft | 442 kts | 312° |
| 2026-05-06 01:08 | 34.51898 | -118.49286 | 28153 ft | 445 kts | 312° |
| 2026-05-06 01:09 | 34.53776 | -118.52285 | 28718 ft | 448 kts | 313° |
| 2026-05-06 01:09 | 34.55676 | -118.55298 | 29217 ft | 452 kts | 313° |
| 2026-05-06 01:09 | 34.57597 | -118.58344 | 29697 ft | 456 kts | 313° |
| 2026-05-06 01:09 | 34.59523 | -118.61408 | 30303 ft | 455 kts | 313° |
| 2026-05-06 01:10 | 34.61424 | -118.64448 | 31048 ft | 449 kts | 313° |
| 2026-05-06 01:10 | 34.63296 | -118.67447 | 31752 ft | 444 kts | 313° |
| 2026-05-06 01:10 | 34.65155 | -118.70424 | 32386 ft | 441 kts | 313° |
| 2026-05-06 01:10 | 34.66999 | -118.73377 | 33059 ft | 437 kts | 312° |
| 2026-05-06 01:11 | 34.68820 | -118.76299 | 33760 ft | 431 kts | 312° |
| 2026-05-06 01:11 | 34.70619 | -118.79187 | 34396 ft | 426 kts | 311° |
| 2026-05-06 01:11 | 34.72404 | -118.82051 | 34818 ft | 425 kts | 311° |
| 2026-05-06 01:11 | 34.74192 | -118.84920 | 35135 ft | 427 kts | 311° |
| 2026-05-06 01:12 | 34.75984 | -118.87800 | 35490 ft | 427 kts | 311° |
| 2026-05-06 01:12 | 34.77771 | -118.90676 | 35899 ft | 426 kts | 310° |
| 2026-05-06 01:12 | 34.79653 | -118.93450 | 35972 ft | 424 kts | 321° |
| 2026-05-06 01:12 | 34.82036 | -118.95490 | 36052 ft | 418 kts | 332° |
| 2026-05-06 01:13 | 34.84511 | -118.97238 | 36007 ft | 414 kts | 334° |
| 2026-05-06 01:13 | 34.89246 | -119.00499 | 36019 ft | 410 kts | 333° |
| 2026-05-06 01:14 | 34.96663 | -119.05771 | 36025 ft | 413 kts | 334° |
| 2026-05-06 01:14 | 35.01618 | -119.09327 | 36029 ft | 414 kts | 334° |
| 2026-05-06 01:15 | 35.06578 | -119.12885 | 36025 ft | 414 kts | 334° |
| 2026-05-06 01:15 | 35.11574 | -119.16474 | 36022 ft | 413 kts | 333° |
| 2026-05-06 01:16 | 35.16526 | -119.20039 | 36010 ft | 413 kts | 334° |
| 2026-05-06 01:16 | 35.21473 | -119.23603 | 36020 ft | 413 kts | 334° |
| 2026-05-06 01:17 | 35.26376 | -119.27143 | 36008 ft | 412 kts | 334° |
| 2026-05-06 01:17 | 35.31305 | -119.30704 | 36018 ft | 411 kts | 334° |
| 2026-05-06 01:18 | 35.36224 | -119.34264 | 36008 ft | 411 kts | 335° |
| 2026-05-06 01:18 | 35.41139 | -119.37826 | 36026 ft | 411 kts | 335° |
| 2026-05-06 01:19 | 35.46064 | -119.41401 | 36019 ft | 412 kts | 335° |
| 2026-05-06 01:19 | 35.50998 | -119.44988 | 36024 ft | 413 kts | 335° |
| 2026-05-06 01:20 | 35.53395 | -119.46956 | 35983 ft | 422 kts | 323° |
| 2026-05-06 01:20 | 35.55290 | -119.49765 | 36034 ft | 435 kts | 307° |
| 2026-05-06 01:20 | 35.56503 | -119.53220 | 36023 ft | 450 kts | 289° |
| 2026-05-06 01:20 | 35.57148 | -119.56997 | 36026 ft | 453 kts | 286° |
| 2026-05-06 01:21 | 35.58208 | -119.64644 | 36023 ft | 455 kts | 285° |
| 2026-05-06 01:21 | 35.59212 | -119.71948 | 36021 ft | 455 kts | 286° |
| 2026-05-06 01:22 | 35.60309 | -119.79527 | 36022 ft | 454 kts | 286° |
| 2026-05-06 01:22 | 35.61416 | -119.87024 | 36017 ft | 454 kts | 286° |
| 2026-05-06 01:23 | 35.62539 | -119.94642 | 36011 ft | 453 kts | 287° |
| 2026-05-06 01:23 | 35.63656 | -120.02270 | 36031 ft | 454 kts | 287° |
| 2026-05-06 01:24 | 35.64770 | -120.09914 | 36034 ft | 455 kts | 286° |
| 2026-05-06 01:24 | 35.65881 | -120.17585 | 36033 ft | 456 kts | 286° |
| 2026-05-06 01:25 | 35.66990 | -120.25264 | 36039 ft | 456 kts | 286° |
| 2026-05-06 01:25 | 35.68259 | -120.32870 | 36050 ft | 449 kts | 295° |
| 2026-05-06 01:26 | 35.70930 | -120.39622 | 36063 ft | 434 kts | 310° |
| 2026-05-06 01:26 | 35.74240 | -120.45753 | 36064 ft | 433 kts | 311° |
| 2026-05-06 01:27 | 35.75906 | -120.48825 | 35894 ft | 435 kts | 311° |
| 2026-05-06 01:27 | 35.77587 | -120.51950 | 35374 ft | 436 kts | 311° |
| 2026-05-06 01:27 | 35.79253 | -120.55076 | 34775 ft | 437 kts | 311° |
| 2026-05-06 01:27 | 35.80914 | -120.58211 | 34276 ft | 436 kts | 311° |
| 2026-05-06 01:28 | 35.82556 | -120.61327 | 33756 ft | 434 kts | 312° |
| 2026-05-06 01:28 | 35.84195 | -120.64443 | 33265 ft | 430 kts | 312° |
| 2026-05-06 01:28 | 35.85816 | -120.67525 | 32779 ft | 427 kts | 312° |
| 2026-05-06 01:28 | 35.87422 | -120.70583 | 32319 ft | 423 kts | 312° |
| 2026-05-06 01:29 | 35.89016 | -120.73617 | 31879 ft | 420 kts | 312° |
| 2026-05-06 01:29 | 35.90598 | -120.76627 | 31454 ft | 417 kts | 312° |
| 2026-05-06 01:29 | 35.92171 | -120.79623 | 31017 ft | 415 kts | 312° |
| 2026-05-06 01:29 | 35.93732 | -120.82599 | 30595 ft | 412 kts | 312° |
| 2026-05-06 01:30 | 35.95287 | -120.85565 | 30175 ft | 410 kts | 312° |
| 2026-05-06 01:30 | 35.96834 | -120.88517 | 29670 ft | 408 kts | 312° |
| 2026-05-06 01:30 | 35.98368 | -120.91452 | 29198 ft | 405 kts | 312° |
| 2026-05-06 01:30 | 35.99888 | -120.94360 | 28733 ft | 401 kts | 312° |
| 2026-05-06 01:31 | 36.01583 | -120.96998 | 28208 ft | 382 kts | 328° |
| 2026-05-06 01:31 | 36.03639 | -120.98994 | 27764 ft | 373 kts | 331° |
| 2026-05-06 01:31 | 36.05708 | -121.00908 | 27284 ft | 370 kts | 331° |
| 2026-05-06 01:31 | 36.07760 | -121.02806 | 26844 ft | 367 kts | 331° |
| 2026-05-06 01:32 | 36.09790 | -121.04697 | 26413 ft | 364 kts | 330° |
| 2026-05-06 01:32 | 36.11800 | -121.06587 | 25984 ft | 361 kts | 330° |
| 2026-05-06 01:32 | 36.13787 | -121.08466 | 25558 ft | 359 kts | 330° |
| 2026-05-06 01:32 | 36.15758 | -121.10337 | 25136 ft | 356 kts | 329° |
| 2026-05-06 01:33 | 36.17715 | -121.12201 | 24724 ft | 353 kts | 329° |
| 2026-05-06 01:33 | 36.19655 | -121.14050 | 24300 ft | 351 kts | 329° |
| 2026-05-06 01:33 | 36.21586 | -121.15892 | 23884 ft | 349 kts | 329° |
| 2026-05-06 01:33 | 36.23504 | -121.17724 | 23426 ft | 347 kts | 328° |
| 2026-05-06 01:34 | 36.25412 | -121.19547 | 22952 ft | 345 kts | 328° |
| 2026-05-06 01:34 | 36.27304 | -121.21357 | 22502 ft | 342 kts | 328° |
| 2026-05-06 01:34 | 36.29176 | -121.23149 | 22090 ft | 338 kts | 328° |
| 2026-05-06 01:34 | 36.31032 | -121.24926 | 21650 ft | 335 kts | 328° |
| 2026-05-06 01:35 | 36.32862 | -121.26680 | 21252 ft | 331 kts | 328° |
| 2026-05-06 01:35 | 36.34677 | -121.28420 | 20834 ft | 328 kts | 328° |
| 2026-05-06 01:35 | 36.36472 | -121.30142 | 20476 ft | 324 kts | 328° |
| 2026-05-06 01:35 | 36.38245 | -121.31850 | 20072 ft | 321 kts | 327° |
| 2026-05-06 01:36 | 36.40002 | -121.33542 | 19677 ft | 319 kts | 327° |
| 2026-05-06 01:36 | 36.41748 | -121.35226 | 19276 ft | 316 kts | 327° |
| 2026-05-06 01:36 | 36.43480 | -121.36896 | 18879 ft | 315 kts | 327° |
| 2026-05-06 01:36 | 36.45203 | -121.38558 | 18475 ft | 313 kts | 327° |
| 2026-05-06 01:37 | 36.46914 | -121.40211 | 18028 ft | 311 kts | 327° |
| 2026-05-06 01:37 | 36.48617 | -121.41855 | 17592 ft | 309 kts | 327° |
| 2026-05-06 01:37 | 36.50375 | -121.43329 | 17175 ft | 300 kts | 340° |
| 2026-05-06 01:37 | 36.52305 | -121.44224 | 16802 ft | 295 kts | 345° |
| 2026-05-06 01:38 | 36.54258 | -121.45020 | 16391 ft | 297 kts | 346° |
| 2026-05-06 01:38 | 36.56224 | -121.45813 | 15980 ft | 296 kts | 346° |
| 2026-05-06 01:38 | 36.58176 | -121.46610 | 15558 ft | 294 kts | 345° |
| 2026-05-06 01:38 | 36.60114 | -121.47412 | 15149 ft | 292 kts | 345° |
| 2026-05-06 01:39 | 36.62008 | -121.48203 | 14765 ft | 290 kts | 345° |
| 2026-05-06 01:39 | 36.63914 | -121.49003 | 14371 ft | 288 kts | 345° |
| 2026-05-06 01:39 | 36.65806 | -121.49800 | 13958 ft | 286 kts | 345° |
| 2026-05-06 01:39 | 36.67676 | -121.50584 | 13517 ft | 281 kts | 345° |
| 2026-05-06 01:40 | 36.69526 | -121.51367 | 13128 ft | 283 kts | 345° |
| 2026-05-06 01:40 | 36.71390 | -121.52159 | 12734 ft | 283 kts | 345° |
| 2026-05-06 01:40 | 36.73245 | -121.52946 | 12323 ft | 280 kts | 345° |
| 2026-05-06 01:40 | 36.75082 | -121.53730 | 11903 ft | 278 kts | 345° |
| 2026-05-06 01:41 | 36.76906 | -121.54505 | 11518 ft | 276 kts | 345° |
| 2026-05-06 01:41 | 36.78727 | -121.55276 | 11110 ft | 275 kts | 345° |
| 2026-05-06 01:41 | 36.80536 | -121.56044 | 10716 ft | 274 kts | 345° |
| 2026-05-06 01:41 | 36.82338 | -121.56809 | 10331 ft | 273 kts | 345° |
| 2026-05-06 01:42 | 36.84104 | -121.57560 | 10198 ft | 262 kts | 344° |
| 2026-05-06 01:42 | 36.85802 | -121.58283 | 9961 ft | 256 kts | 344° |
| 2026-05-06 01:42 | 36.87488 | -121.59000 | 9590 ft | 256 kts | 344° |
| 2026-05-06 01:42 | 36.89184 | -121.59721 | 9242 ft | 258 kts | 344° |
| 2026-05-06 01:43 | 36.90784 | -121.60402 | 8920 ft | 257 kts | 343° |
| 2026-05-06 01:43 | 36.92475 | -121.61125 | 8572 ft | 254 kts | 343° |
| 2026-05-06 01:43 | 36.94146 | -121.61836 | 8209 ft | 253 kts | 343° |
| 2026-05-06 01:43 | 36.95742 | -121.62513 | 8032 ft | 234 kts | 343° |
| 2026-05-06 01:44 | 36.97272 | -121.63161 | 7613 ft | 228 kts | 345° |
| 2026-05-06 01:44 | 36.98770 | -121.63765 | 7297 ft | 226 kts | 343° |
| 2026-05-06 01:44 | 37.00274 | -121.64417 | 6977 ft | 231 kts | 342° |
| 2026-05-06 01:44 | 37.01803 | -121.65074 | 6660 ft | 235 kts | 342° |
| 2026-05-06 01:45 | 37.03351 | -121.65736 | 6325 ft | 235 kts | 342° |
| 2026-05-06 01:45 | 37.04894 | -121.66393 | 5989 ft | 234 kts | 342° |
| 2026-05-06 01:45 | 37.06434 | -121.67049 | 5659 ft | 233 kts | 341° |
| 2026-05-06 01:45 | 37.07967 | -121.67702 | 5341 ft | 232 kts | 341° |
| 2026-05-06 01:46 | 37.09415 | -121.68318 | 5044 ft | 232 kts | 341° |
| 2026-05-06 01:46 | 37.10880 | -121.68942 | 4932 ft | 225 kts | 341° |
| 2026-05-06 01:46 | 37.12320 | -121.69556 | 4828 ft | 229 kts | 340° |
| 2026-05-06 01:46 | 37.13816 | -121.70194 | 4724 ft | 233 kts | 340° |
| 2026-05-06 01:47 | 37.15339 | -121.70843 | 4604 ft | 226 kts | 340° |
| 2026-05-06 01:47 | 37.16717 | -121.71589 | 4515 ft | 207 kts | 326° |
| 2026-05-06 01:47 | 37.17763 | -121.72593 | 4483 ft | 201 kts | 320° |
| 2026-05-06 01:47 | 37.18812 | -121.73735 | 4422 ft | 200 kts | 318° |
| 2026-05-06 01:48 | 37.19852 | -121.74886 | 4182 ft | 195 kts | 318° |
| 2026-05-06 01:48 | 37.20834 | -121.75973 | 3939 ft | 182 kts | 318° |
| 2026-05-06 01:48 | 37.21767 | -121.77004 | 3687 ft | 178 kts | 318° |
| 2026-05-06 01:48 | 37.22696 | -121.78030 | 3451 ft | 177 kts | 318° |
| 2026-05-06 01:49 | 37.23590 | -121.79016 | 3214 ft | 176 kts | 318° |
| 2026-05-06 01:49 | 37.24502 | -121.80023 | 2980 ft | 174 kts | 318° |
| 2026-05-06 01:49 | 37.25403 | -121.81016 | 2765 ft | 171 kts | 318° |
| 2026-05-06 01:49 | 37.26297 | -121.82002 | 2523 ft | 169 kts | 318° |
| 2026-05-06 01:50 | 37.27145 | -121.82936 | 2291 ft | 155 kts | 318° |
| 2026-05-06 01:50 | 37.27920 | -121.83790 | 2089 ft | 143 kts | 318° |
| 2026-05-06 01:50 | 37.28677 | -121.84625 | 1916 ft | 143 kts | 318° |
| 2026-05-06 01:50 | 37.29401 | -121.85424 | 1741 ft | 139 kts | 317° |
| 2026-05-06 01:51 | 37.29877 | -121.85954 | 1616 ft | 136 kts | 317° |
| 2026-05-06 01:51 | 37.30595 | -121.86744 | 1397 ft | 137 kts | 317° |
| 2026-05-06 01:51 | 37.31295 | -121.87538 | 1177 ft | 136 kts | 318° |
| 2026-05-06 01:51 | 37.32234 | -121.88572 | 948 ft | 133 kts | 319° |
| 2026-05-06 01:52 | 37.32693 | -121.89075 | 850 ft | 132 kts | 319° |
| 2026-05-06 01:52 | 37.33384 | -121.89849 | 695 ft | 134 kts | 319° |
| 2026-05-06 01:52 | 37.34089 | -121.90645 | 508 ft | 139 kts | 320° |
| 2026-05-06 01:52 | 37.34839 | -121.91443 | 302 ft | 138 kts | 321° |
| 2026-05-06 01:53 | 37.35551 | -121.92215 | 103 ft | 131 kts | 320° |
| 2026-05-06 01:53 | 37.36177 | -121.92890 | 60 ft | 100 kts | 320° |
| 2026-05-06 01:53 | 37.36535 | -121.93278 | 60 ft | 47 kts | 319° |
| 2026-05-06 01:53 | 37.36686 | -121.93399 | 55 ft | 17 kts | 358° |
| 2026-05-06 01:54 | 37.36773 | -121.93358 | 55 ft | 9 kts | 43° |
| 2026-05-06 01:54 | 37.36808 | -121.93308 | 59 ft | 7 kts | 49° |
| 2026-05-06 01:54 | 37.36842 | -121.93261 | 58 ft | 7 kts | 48° |
| 2026-05-06 01:54 | 37.36884 | -121.93199 | 57 ft | 12 kts | 50° |
| 2026-05-06 01:55 | 37.36895 | -121.93102 | 57 ft | 12 kts | 122° |
| 2026-05-06 01:55 | 37.36835 | -121.93028 | 60 ft | 12 kts | 138° |
| 2026-05-06 01:55 | 37.36773 | -121.92960 | 53 ft | 12 kts | 139° |
| 2026-05-06 01:55 | 37.36712 | -121.92895 | 60 ft | 11 kts | 139° |
| 2026-05-06 01:56 | 37.36653 | -121.92830 | 55 ft | 11 kts | 139° |
| 2026-05-06 01:56 | 37.36596 | -121.92768 | 55 ft | 11 kts | 139° |
| 2026-05-06 01:56 | 37.36541 | -121.92707 | 55 ft | 10 kts | 139° |
| 2026-05-06 01:56 | 37.36487 | -121.92649 | 58 ft | 10 kts | 138° |
| 2026-05-06 01:57 | 37.36458 | -121.92596 | 61 ft | 3 kts | 80° |
| 2026-05-06 01:57 | 37.36469 | -121.92571 | 61 ft | 3 kts | 56° |
| 2026-05-06 01:57 | 37.36482 | -121.92550 | 60 ft | 3 kts | 49° |
| 2026-05-06 01:57 | 37.36492 | -121.92537 | 59 ft | 1 kts | 49° |
| 2026-05-06 01:58 | 37.36495 | -121.92533 | 58 ft | 1 kts | 49° |
| 2026-05-06 01:59 | 37.27608 | -121.83446 | 2177 ft | 147 kts | 317° |
| 2026-05-06 01:59 | 37.28322 | -121.84233 | 2009 ft | 146 kts | 318° |
| 2026-05-06 01:59 | 37.29076 | -121.85066 | 1850 ft | 136 kts | 317° |
| 2026-05-06 02:00 | 37.29800 | -121.85868 | 1624 ft | 136 kts | 317° |
| 2026-05-06 02:00 | 37.30372 | -121.86497 | 1459 ft | 138 kts | 318° |